sensor_id;sensor_type;location;lat;lon;timestamp;P1;durP1;ratioP1;P2;durP2;ratioP2
47299;SDS011;33036;51.320;17.234;2022-09-09T00:00:50;24.40;;;13.07;;
47299;SDS011;33036;51.320;17.234;2022-09-09T00:05:19;18.10;;;12.43;;
47299;SDS011;33036;51.320;17.234;2022-09-09T00:09:28;16.35;;;11.70;;
47299;SDS011;33036;51.320;17.234;2022-09-09T00:13:34;21.27;;;11.68;;
47299;SDS011;33036;51.320;17.234;2022-09-09T00:17:41;18.95;;;11.57;;
47299;SDS011;33036;51.320;17.234;2022-09-09T00:21:53;19.92;;;10.82;;
47299;SDS011;33036;51.320;17.234;2022-09-09T00:30:24;16.98;;;10.55;;
47299;SDS011;33036;51.320;17.234;2022-09-09T00:34:26;13.38;;;9.38;;
47299;SDS011;33036;51.320;17.234;2022-09-09T00:42:43;15.63;;;9.70;;
47299;SDS011;33036;51.320;17.234;2022-09-09T00:46:53;13.32;;;8.45;;
47299;SDS011;33036;51.320;17.234;2022-09-09T00:50:57;11.20;;;7.43;;
47299;SDS011;33036;51.320;17.234;2022-09-09T01:03:49;9.38;;;7.10;;
47299;SDS011;33036;51.320;17.234;2022-09-09T01:07:56;12.70;;;7.82;;
47299;SDS011;33036;51.320;17.234;2022-09-09T01:16:07;11.75;;;6.47;;
47299;SDS011;33036;51.320;17.234;2022-09-09T01:20:14;11.30;;;6.93;;
47299;SDS011;33036;51.320;17.234;2022-09-09T01:24:22;10.55;;;6.60;;
47299;SDS011;33036;51.320;17.234;2022-09-09T01:28:48;14.02;;;6.72;;
47299;SDS011;33036;51.320;17.234;2022-09-09T01:32:56;15.32;;;7.00;;
47299;SDS011;33036;51.320;17.234;2022-09-09T01:37:07;13.80;;;6.67;;
47299;SDS011;33036;51.320;17.234;2022-09-09T01:41:09;10.25;;;6.20;;
47299;SDS011;33036;51.320;17.234;2022-09-09T01:45:10;10.40;;;6.65;;
47299;SDS011;33036;51.320;17.234;2022-09-09T01:49:11;10.20;;;6.78;;
47299;SDS011;33036;51.320;17.234;2022-09-09T01:53:13;11.35;;;5.95;;
47299;SDS011;33036;51.320;17.234;2022-09-09T01:57:25;9.02;;;5.75;;
47299;SDS011;33036;51.320;17.234;2022-09-09T02:10:16;9.73;;;5.28;;
47299;SDS011;33036;51.320;17.234;2022-09-09T02:14:25;11.30;;;4.80;;
47299;SDS011;33036;51.320;17.234;2022-09-09T02:18:48;7.38;;;4.15;;
47299;SDS011;33036;51.320;17.234;2022-09-09T02:23:05;12.25;;;4.20;;
47299;SDS011;33036;51.320;17.234;2022-09-09T02:27:09;11.77;;;4.30;;
47299;SDS011;33036;51.320;17.234;2022-09-09T02:31:10;8.20;;;4.40;;
47299;SDS011;33036;51.320;17.234;2022-09-09T02:35:15;6.20;;;3.90;;
47299;SDS011;33036;51.320;17.234;2022-09-09T02:39:19;4.83;;;3.83;;
47299;SDS011;33036;51.320;17.234;2022-09-09T02:43:20;7.07;;;3.42;;
47299;SDS011;33036;51.320;17.234;2022-09-09T02:47:25;7.38;;;3.65;;
47299;SDS011;33036;51.320;17.234;2022-09-09T02:51:37;8.35;;;3.53;;
47299;SDS011;33036;51.320;17.234;2022-09-09T02:55:53;8.60;;;3.85;;
47299;SDS011;33036;51.320;17.234;2022-09-09T02:59:58;10.30;;;4.03;;
47299;SDS011;33036;51.320;17.234;2022-09-09T03:03:59;11.55;;;4.53;;
47299;SDS011;33036;51.320;17.234;2022-09-09T03:08:00;8.82;;;4.20;;
47299;SDS011;33036;51.320;17.234;2022-09-09T03:12:01;6.20;;;4.18;;
47299;SDS011;33036;51.320;17.234;2022-09-09T03:16:04;8.60;;;4.03;;
47299;SDS011;33036;51.320;17.234;2022-09-09T03:20:05;7.75;;;4.22;;
47299;SDS011;33036;51.320;17.234;2022-09-09T03:24:07;4.82;;;3.85;;
47299;SDS011;33036;51.320;17.234;2022-09-09T03:28:09;19.20;;;4.47;;
47299;SDS011;33036;51.320;17.234;2022-09-09T03:32:11;6.80;;;3.70;;
47299;SDS011;33036;51.320;17.234;2022-09-09T03:36:13;10.05;;;3.78;;
47299;SDS011;33036;51.320;17.234;2022-09-09T03:40:15;9.00;;;3.60;;
47299;SDS011;33036;51.320;17.234;2022-09-09T03:44:16;8.95;;;3.67;;
47299;SDS011;33036;51.320;17.234;2022-09-09T03:48:17;9.23;;;3.33;;
47299;SDS011;33036;51.320;17.234;2022-09-09T03:52:18;3.53;;;3.08;;
47299;SDS011;33036;51.320;17.234;2022-09-09T03:56:20;4.43;;;3.17;;
47299;SDS011;33036;51.320;17.234;2022-09-09T04:00:22;5.38;;;3.40;;
47299;SDS011;33036;51.320;17.234;2022-09-09T04:04:23;5.10;;;3.50;;
47299;SDS011;33036;51.320;17.234;2022-09-09T04:08:24;4.93;;;3.60;;
47299;SDS011;33036;51.320;17.234;2022-09-09T04:12:28;4.68;;;3.20;;
47299;SDS011;33036;51.320;17.234;2022-09-09T04:16:29;5.90;;;3.30;;
47299;SDS011;33036;51.320;17.234;2022-09-09T04:20:30;4.53;;;3.42;;
47299;SDS011;33036;51.320;17.234;2022-09-09T04:24:31;4.22;;;3.08;;
47299;SDS011;33036;51.320;17.234;2022-09-09T04:28:33;6.25;;;3.47;;
47299;SDS011;33036;51.320;17.234;2022-09-09T04:32:35;5.28;;;3.03;;
47299;SDS011;33036;51.320;17.234;2022-09-09T04:36:37;6.93;;;3.80;;
47299;SDS011;33036;51.320;17.234;2022-09-09T04:40:41;6.25;;;4.10;;
47299;SDS011;33036;51.320;17.234;2022-09-09T04:44:43;5.38;;;3.72;;
47299;SDS011;33036;51.320;17.234;2022-09-09T04:48:44;4.57;;;4.18;;
47299;SDS011;33036;51.320;17.234;2022-09-09T04:52:45;9.65;;;4.70;;
47299;SDS011;33036;51.320;17.234;2022-09-09T04:56:46;11.50;;;5.13;;
47299;SDS011;33036;51.320;17.234;2022-09-09T05:00:47;8.05;;;6.20;;
47299;SDS011;33036;51.320;17.234;2022-09-09T05:04:48;15.27;;;8.50;;
47299;SDS011;33036;51.320;17.234;2022-09-09T05:08:50;12.50;;;7.55;;
47299;SDS011;33036;51.320;17.234;2022-09-09T05:12:52;11.35;;;8.52;;
47299;SDS011;33036;51.320;17.234;2022-09-09T05:16:54;13.10;;;9.02;;
47299;SDS011;33036;51.320;17.234;2022-09-09T05:20:59;18.60;;;11.07;;
47299;SDS011;33036;51.320;17.234;2022-09-09T05:25:01;18.42;;;12.73;;
47299;SDS011;33036;51.320;17.234;2022-09-09T05:29:01;18.48;;;12.98;;
47299;SDS011;33036;51.320;17.234;2022-09-09T05:33:03;23.30;;;17.20;;
47299;SDS011;33036;51.320;17.234;2022-09-09T05:37:04;26.88;;;18.30;;
47299;SDS011;33036;51.320;17.234;2022-09-09T05:41:06;32.22;;;22.08;;
47299;SDS011;33036;51.320;17.234;2022-09-09T05:45:07;27.48;;;20.20;;
47299;SDS011;33036;51.320;17.234;2022-09-09T05:49:09;29.40;;;21.73;;
47299;SDS011;33036;51.320;17.234;2022-09-09T05:53:10;30.35;;;19.38;;
47299;SDS011;33036;51.320;17.234;2022-09-09T05:57:11;22.25;;;15.05;;
47299;SDS011;33036;51.320;17.234;2022-09-09T06:01:13;23.92;;;15.77;;
47299;SDS011;33036;51.320;17.234;2022-09-09T06:05:16;21.27;;;16.80;;
47299;SDS011;33036;51.320;17.234;2022-09-09T06:09:17;16.98;;;13.00;;
47299;SDS011;33036;51.320;17.234;2022-09-09T06:13:18;17.60;;;12.30;;
47299;SDS011;33036;51.320;17.234;2022-09-09T06:17:19;16.42;;;11.88;;
47299;SDS011;33036;51.320;17.234;2022-09-09T06:21:21;16.77;;;10.18;;
47299;SDS011;33036;51.320;17.234;2022-09-09T06:25:23;10.68;;;9.20;;
47299;SDS011;33036;51.320;17.234;2022-09-09T06:29:25;10.73;;;8.52;;
47299;SDS011;33036;51.320;17.234;2022-09-09T06:33:26;11.63;;;8.02;;
47299;SDS011;33036;51.320;17.234;2022-09-09T06:37:31;14.27;;;10.02;;
47299;SDS011;33036;51.320;17.234;2022-09-09T06:41:32;13.45;;;9.63;;
47299;SDS011;33036;51.320;17.234;2022-09-09T06:45:33;15.35;;;10.38;;
47299;SDS011;33036;51.320;17.234;2022-09-09T06:49:36;12.68;;;9.73;;
47299;SDS011;33036;51.320;17.234;2022-09-09T06:53:38;15.55;;;10.00;;
47299;SDS011;33036;51.320;17.234;2022-09-09T06:57:40;12.13;;;9.65;;
47299;SDS011;33036;51.320;17.234;2022-09-09T07:01:42;9.75;;;6.10;;
47299;SDS011;33036;51.320;17.234;2022-09-09T07:05:53;12.55;;;5.75;;
47299;SDS011;33036;51.320;17.234;2022-09-09T07:09:56;6.75;;;4.95;;
47299;SDS011;33036;51.320;17.234;2022-09-09T07:13:58;11.93;;;9.07;;
47299;SDS011;33036;51.320;17.234;2022-09-09T07:18:03;20.30;;;11.38;;
47299;SDS011;33036;51.320;17.234;2022-09-09T07:22:03;17.63;;;9.43;;
47299;SDS011;33036;51.320;17.234;2022-09-09T07:26:10;8.90;;;5.63;;
47299;SDS011;33036;51.320;17.234;2022-09-09T07:30:12;5.65;;;3.03;;
47299;SDS011;33036;51.320;17.234;2022-09-09T07:34:13;7.30;;;3.20;;
47299;SDS011;33036;51.320;17.234;2022-09-09T07:38:14;4.20;;;2.60;;
47299;SDS011;33036;51.320;17.234;2022-09-09T07:42:15;5.45;;;2.38;;
47299;SDS011;33036;51.320;17.234;2022-09-09T07:46:17;3.45;;;2.50;;
47299;SDS011;33036;51.320;17.234;2022-09-09T07:50:20;5.82;;;3.20;;
47299;SDS011;33036;51.320;17.234;2022-09-09T07:54:20;4.15;;;2.70;;
47299;SDS011;33036;51.320;17.234;2022-09-09T07:58:24;6.88;;;2.70;;
47299;SDS011;33036;51.320;17.234;2022-09-09T08:02:24;7.20;;;3.65;;
47299;SDS011;33036;51.320;17.234;2022-09-09T08:06:32;3.38;;;2.67;;
47299;SDS011;33036;51.320;17.234;2022-09-09T08:10:34;5.68;;;3.08;;
47299;SDS011;33036;51.320;17.234;2022-09-09T08:14:36;5.57;;;3.20;;
47299;SDS011;33036;51.320;17.234;2022-09-09T08:18:37;4.90;;;1.73;;
47299;SDS011;33036;51.320;17.234;2022-09-09T08:22:39;3.63;;;1.88;;
47299;SDS011;33036;51.320;17.234;2022-09-09T08:26:40;4.47;;;1.67;;
47299;SDS011;33036;51.320;17.234;2022-09-09T08:30:43;6.18;;;2.20;;
47299;SDS011;33036;51.320;17.234;2022-09-09T08:34:43;4.82;;;1.88;;
47299;SDS011;33036;51.320;17.234;2022-09-09T08:38:52;3.58;;;2.10;;
47299;SDS011;33036;51.320;17.234;2022-09-09T08:42:56;4.57;;;2.55;;
47299;SDS011;33036;51.320;17.234;2022-09-09T08:47:03;5.07;;;2.10;;
47299;SDS011;33036;51.320;17.234;2022-09-09T08:51:20;7.63;;;2.03;;
47299;SDS011;33036;51.320;17.234;2022-09-09T08:59:28;8.43;;;2.00;;
47299;SDS011;33036;51.320;17.234;2022-09-09T09:03:50;3.90;;;2.30;;
47299;SDS011;33036;51.320;17.234;2022-09-09T09:08:11;2.67;;;1.65;;
47299;SDS011;33036;51.320;17.234;2022-09-09T09:12:22;5.75;;;2.08;;
47299;SDS011;33036;51.320;17.234;2022-09-09T09:16:36;6.25;;;2.05;;
47299;SDS011;33036;51.320;17.234;2022-09-09T09:25:23;2.72;;;1.38;;
47299;SDS011;33036;51.320;17.234;2022-09-09T09:29:37;4.00;;;1.45;;
47299;SDS011;33036;51.320;17.234;2022-09-09T09:33:51;3.13;;;1.30;;
47299;SDS011;33036;51.320;17.234;2022-09-09T09:37:53;7.25;;;1.85;;
47299;SDS011;33036;51.320;17.234;2022-09-09T09:41:54;3.40;;;1.38;;
47299;SDS011;33036;51.320;17.234;2022-09-09T09:45:57;3.83;;;1.30;;
47299;SDS011;33036;51.320;17.234;2022-09-09T09:49:59;3.75;;;1.30;;
47299;SDS011;33036;51.320;17.234;2022-09-09T09:58:13;2.75;;;1.40;;
47299;SDS011;33036;51.320;17.234;2022-09-09T10:02:17;4.18;;;1.65;;
47299;SDS011;33036;51.320;17.234;2022-09-09T10:06:30;4.13;;;2.05;;
47299;SDS011;33036;51.320;17.234;2022-09-09T10:19:00;5.22;;;1.83;;
47299;SDS011;33036;51.320;17.234;2022-09-09T10:36:28;5.18;;;2.05;;
47299;SDS011;33036;51.320;17.234;2022-09-09T10:45:01;4.97;;;1.92;;
47299;SDS011;33036;51.320;17.234;2022-09-09T10:49:27;6.40;;;2.15;;
47299;SDS011;33036;51.320;17.234;2022-09-09T10:53:35;8.57;;;2.40;;
47299;SDS011;33036;51.320;17.234;2022-09-09T10:57:47;6.13;;;1.92;;
47299;SDS011;33036;51.320;17.234;2022-09-09T11:01:52;5.88;;;2.00;;
47299;SDS011;33036;51.320;17.234;2022-09-09T11:05:59;5.70;;;1.60;;
47299;SDS011;33036;51.320;17.234;2022-09-09T11:10:04;2.30;;;1.20;;
47299;SDS011;33036;51.320;17.234;2022-09-09T11:14:16;3.88;;;1.73;;
47299;SDS011;33036;51.320;17.234;2022-09-09T11:18:21;2.75;;;1.30;;
47299;SDS011;33036;51.320;17.234;2022-09-09T11:22:27;6.45;;;1.20;;
47299;SDS011;33036;51.320;17.234;2022-09-09T11:26:31;5.60;;;1.50;;
47299;SDS011;33036;51.320;17.234;2022-09-09T11:43:31;5.82;;;1.35;;
47299;SDS011;33036;51.320;17.234;2022-09-09T11:47:34;7.70;;;1.38;;
47299;SDS011;33036;51.320;17.234;2022-09-09T11:51:35;4.38;;;1.20;;
47299;SDS011;33036;51.320;17.234;2022-09-09T11:55:35;3.97;;;1.45;;
47299;SDS011;33036;51.320;17.234;2022-09-09T11:59:37;9.43;;;1.50;;
47299;SDS011;33036;51.320;17.234;2022-09-09T12:03:42;2.13;;;1.17;;
47299;SDS011;33036;51.320;17.234;2022-09-09T12:07:50;5.05;;;1.10;;
47299;SDS011;33036;51.320;17.234;2022-09-09T12:12:04;4.45;;;1.65;;
47299;SDS011;33036;51.320;17.234;2022-09-09T12:16:35;3.85;;;1.17;;
47299;SDS011;33036;51.320;17.234;2022-09-09T12:20:37;7.95;;;1.35;;
47299;SDS011;33036;51.320;17.234;2022-09-09T12:24:41;4.20;;;1.23;;
47299;SDS011;33036;51.320;17.234;2022-09-09T12:33:17;5.38;;;1.10;;
47299;SDS011;33036;51.320;17.234;2022-09-09T12:41:41;5.32;;;1.25;;
47299;SDS011;33036;51.320;17.234;2022-09-09T12:45:42;1.25;;;0.60;;
47299;SDS011;33036;51.320;17.234;2022-09-09T12:49:43;1.80;;;0.80;;
47299;SDS011;33036;51.320;17.234;2022-09-09T12:53:45;2.90;;;1.02;;
47299;SDS011;33036;51.320;17.234;2022-09-09T12:57:50;1.35;;;0.80;;
47299;SDS011;33036;51.320;17.234;2022-09-09T13:01:58;2.95;;;1.00;;
47299;SDS011;33036;51.320;17.234;2022-09-09T13:06:21;3.65;;;1.05;;
47299;SDS011;33036;51.320;17.234;2022-09-09T13:10:26;4.03;;;1.20;;
47299;SDS011;33036;51.320;17.234;2022-09-09T13:14:30;3.05;;;1.10;;
47299;SDS011;33036;51.320;17.234;2022-09-09T13:18:35;2.08;;;1.10;;
47299;SDS011;33036;51.320;17.234;2022-09-09T13:22:39;8.65;;;1.23;;
47299;SDS011;33036;51.320;17.234;2022-09-09T13:26:41;3.30;;;1.33;;
47299;SDS011;33036;51.320;17.234;2022-09-09T13:30:42;4.97;;;1.20;;
47299;SDS011;33036;51.320;17.234;2022-09-09T13:34:57;4.80;;;1.30;;
47299;SDS011;33036;51.320;17.234;2022-09-09T13:38:59;4.32;;;1.27;;
47299;SDS011;33036;51.320;17.234;2022-09-09T13:43:03;5.03;;;1.20;;
47299;SDS011;33036;51.320;17.234;2022-09-09T13:55:34;3.00;;;1.10;;
47299;SDS011;33036;51.320;17.234;2022-09-09T13:59:36;3.95;;;1.17;;
47299;SDS011;33036;51.320;17.234;2022-09-09T14:03:37;2.70;;;1.20;;
47299;SDS011;33036;51.320;17.234;2022-09-09T14:07:39;4.32;;;1.38;;
47299;SDS011;33036;51.320;17.234;2022-09-09T14:11:41;4.07;;;1.38;;
47299;SDS011;33036;51.320;17.234;2022-09-09T14:15:43;3.08;;;1.15;;
47299;SDS011;33036;51.320;17.234;2022-09-09T14:19:44;6.78;;;1.30;;
47299;SDS011;33036;51.320;17.234;2022-09-09T14:23:46;3.88;;;1.40;;
47299;SDS011;33036;51.320;17.234;2022-09-09T14:27:49;3.13;;;1.10;;
47299;SDS011;33036;51.320;17.234;2022-09-09T14:31:51;4.00;;;1.30;;
47299;SDS011;33036;51.320;17.234;2022-09-09T14:35:56;2.17;;;1.20;;
47299;SDS011;33036;51.320;17.234;2022-09-09T14:39:57;3.65;;;1.58;;
47299;SDS011;33036;51.320;17.234;2022-09-09T14:43:59;5.32;;;1.60;;
47299;SDS011;33036;51.320;17.234;2022-09-09T14:48:00;4.60;;;1.38;;
47299;SDS011;33036;51.320;17.234;2022-09-09T14:52:02;4.50;;;1.30;;
47299;SDS011;33036;51.320;17.234;2022-09-09T14:56:04;3.83;;;1.30;;
47299;SDS011;33036;51.320;17.234;2022-09-09T15:00:07;3.45;;;1.30;;
47299;SDS011;33036;51.320;17.234;2022-09-09T15:04:10;9.75;;;1.20;;
47299;SDS011;33036;51.320;17.234;2022-09-09T15:08:15;2.75;;;1.30;;
47299;SDS011;33036;51.320;17.234;2022-09-09T15:12:16;1.75;;;1.27;;
47299;SDS011;33036;51.320;17.234;2022-09-09T15:16:20;6.82;;;1.48;;
47299;SDS011;33036;51.320;17.234;2022-09-09T15:20:23;5.72;;;1.45;;
47299;SDS011;33036;51.320;17.234;2022-09-09T15:24:24;4.93;;;1.25;;
47299;SDS011;33036;51.320;17.234;2022-09-09T15:28:26;3.03;;;1.30;;
47299;SDS011;33036;51.320;17.234;2022-09-09T15:32:27;2.83;;;1.10;;
47299;SDS011;33036;51.320;17.234;2022-09-09T15:40:30;4.18;;;1.27;;
47299;SDS011;33036;51.320;17.234;2022-09-09T15:44:41;3.08;;;1.35;;
47299;SDS011;33036;51.320;17.234;2022-09-09T15:48:45;3.35;;;1.50;;
47299;SDS011;33036;51.320;17.234;2022-09-09T15:52:49;2.28;;;1.30;;
47299;SDS011;33036;51.320;17.234;2022-09-09T15:56:51;4.18;;;1.60;;
47299;SDS011;33036;51.320;17.234;2022-09-09T16:01:01;4.32;;;1.80;;
47299;SDS011;33036;51.320;17.234;2022-09-09T16:05:08;4.18;;;1.60;;
47299;SDS011;33036;51.320;17.234;2022-09-09T16:09:09;3.60;;;1.98;;
47299;SDS011;33036;51.320;17.234;2022-09-09T16:13:10;10.88;;;2.35;;
47299;SDS011;33036;51.320;17.234;2022-09-09T16:17:14;5.15;;;1.88;;
47299;SDS011;33036;51.320;17.234;2022-09-09T16:21:17;5.53;;;1.90;;
47299;SDS011;33036;51.320;17.234;2022-09-09T16:25:19;7.18;;;1.80;;
47299;SDS011;33036;51.320;17.234;2022-09-09T16:29:21;7.22;;;2.72;;
47299;SDS011;33036;51.320;17.234;2022-09-09T16:33:23;17.02;;;5.78;;
47299;SDS011;33036;51.320;17.234;2022-09-09T16:37:26;28.75;;;9.07;;
47299;SDS011;33036;51.320;17.234;2022-09-09T16:41:28;12.85;;;3.80;;
47299;SDS011;33036;51.320;17.234;2022-09-09T16:45:29;8.57;;;2.03;;
47299;SDS011;33036;51.320;17.234;2022-09-09T16:49:30;4.97;;;2.55;;
47299;SDS011;33036;51.320;17.234;2022-09-09T16:53:32;3.20;;;2.20;;
47299;SDS011;33036;51.320;17.234;2022-09-09T16:57:33;16.60;;;6.07;;
47299;SDS011;33036;51.320;17.234;2022-09-09T17:01:35;7.78;;;4.05;;
47299;SDS011;33036;51.320;17.234;2022-09-09T17:05:40;16.20;;;5.88;;
47299;SDS011;33036;51.320;17.234;2022-09-09T17:09:42;16.17;;;5.10;;
47299;SDS011;33036;51.320;17.234;2022-09-09T17:13:43;10.55;;;3.58;;
47299;SDS011;33036;51.320;17.234;2022-09-09T17:17:44;11.25;;;2.75;;
47299;SDS011;33036;51.320;17.234;2022-09-09T17:21:49;4.38;;;2.17;;
47299;SDS011;33036;51.320;17.234;2022-09-09T17:25:57;10.65;;;2.38;;
47299;SDS011;33036;51.320;17.234;2022-09-09T17:29:58;4.88;;;2.03;;
47299;SDS011;33036;51.320;17.234;2022-09-09T17:33:59;8.88;;;2.38;;
47299;SDS011;33036;51.320;17.234;2022-09-09T17:38:00;8.52;;;1.80;;
47299;SDS011;33036;51.320;17.234;2022-09-09T17:42:01;6.90;;;2.20;;
47299;SDS011;33036;51.320;17.234;2022-09-09T17:46:22;5.13;;;1.90;;
47299;SDS011;33036;51.320;17.234;2022-09-09T17:50:24;10.18;;;2.55;;
47299;SDS011;33036;51.320;17.234;2022-09-09T17:54:25;8.15;;;2.13;;
47299;SDS011;33036;51.320;17.234;2022-09-09T17:58:26;6.72;;;1.83;;
47299;SDS011;33036;51.320;17.234;2022-09-09T18:02:26;15.68;;;2.60;;
47299;SDS011;33036;51.320;17.234;2022-09-09T18:06:28;12.15;;;2.53;;
47299;SDS011;33036;51.320;17.234;2022-09-09T18:10:33;4.40;;;2.08;;
47299;SDS011;33036;51.320;17.234;2022-09-09T18:14:35;3.95;;;2.33;;
47299;SDS011;33036;51.320;17.234;2022-09-09T18:18:36;18.17;;;2.70;;
47299;SDS011;33036;51.320;17.234;2022-09-09T18:22:37;6.32;;;2.58;;
47299;SDS011;33036;51.320;17.234;2022-09-09T18:26:38;6.13;;;2.60;;
47299;SDS011;33036;51.320;17.234;2022-09-09T18:30:40;4.80;;;2.55;;
47299;SDS011;33036;51.320;17.234;2022-09-09T18:34:41;6.20;;;3.30;;
47299;SDS011;33036;51.320;17.234;2022-09-09T18:38:42;10.88;;;2.88;;
47299;SDS011;33036;51.320;17.234;2022-09-09T18:42:45;6.43;;;3.20;;
47299;SDS011;33036;51.320;17.234;2022-09-09T18:46:47;10.25;;;3.08;;
47299;SDS011;33036;51.320;17.234;2022-09-09T18:50:48;7.40;;;2.88;;
47299;SDS011;33036;51.320;17.234;2022-09-09T18:54:49;6.75;;;3.38;;
47299;SDS011;33036;51.320;17.234;2022-09-09T18:58:51;7.15;;;3.28;;
47299;SDS011;33036;51.320;17.234;2022-09-09T19:02:56;11.77;;;3.30;;
47299;SDS011;33036;51.320;17.234;2022-09-09T19:06:57;7.60;;;3.05;;
47299;SDS011;33036;51.320;17.234;2022-09-09T19:11:02;6.25;;;2.85;;
47299;SDS011;33036;51.320;17.234;2022-09-09T19:15:04;10.07;;;2.85;;
47299;SDS011;33036;51.320;17.234;2022-09-09T19:19:11;7.55;;;2.92;;
47299;SDS011;33036;51.320;17.234;2022-09-09T19:23:17;10.40;;;3.25;;
47299;SDS011;33036;51.320;17.234;2022-09-09T19:27:18;10.18;;;3.10;;
47299;SDS011;33036;51.320;17.234;2022-09-09T19:31:19;8.73;;;3.47;;
47299;SDS011;33036;51.320;17.234;2022-09-09T19:35:22;7.45;;;3.28;;
47299;SDS011;33036;51.320;17.234;2022-09-09T19:39:23;8.60;;;3.30;;
47299;SDS011;33036;51.320;17.234;2022-09-09T19:43:25;7.82;;;3.38;;
47299;SDS011;33036;51.320;17.234;2022-09-09T19:47:25;7.15;;;3.53;;
47299;SDS011;33036;51.320;17.234;2022-09-09T19:51:28;10.15;;;3.63;;
47299;SDS011;33036;51.320;17.234;2022-09-09T19:55:29;7.70;;;4.20;;
47299;SDS011;33036;51.320;17.234;2022-09-09T19:59:31;8.13;;;4.03;;
47299;SDS011;33036;51.320;17.234;2022-09-09T20:03:33;9.55;;;4.65;;
47299;SDS011;33036;51.320;17.234;2022-09-09T20:07:35;12.20;;;5.05;;
47299;SDS011;33036;51.320;17.234;2022-09-09T20:11:36;12.32;;;4.60;;
47299;SDS011;33036;51.320;17.234;2022-09-09T20:15:38;9.45;;;4.38;;
47299;SDS011;33036;51.320;17.234;2022-09-09T20:19:39;10.82;;;4.28;;
47299;SDS011;33036;51.320;17.234;2022-09-09T20:23:43;8.25;;;3.85;;
47299;SDS011;33036;51.320;17.234;2022-09-09T20:27:44;8.15;;;4.13;;
47299;SDS011;33036;51.320;17.234;2022-09-09T20:31:46;10.27;;;5.15;;
47299;SDS011;33036;51.320;17.234;2022-09-09T20:35:47;14.75;;;8.27;;
47299;SDS011;33036;51.320;17.234;2022-09-09T20:39:48;13.10;;;6.13;;
47299;SDS011;33036;51.320;17.234;2022-09-09T20:43:49;36.10;;;14.63;;
47299;SDS011;33036;51.320;17.234;2022-09-09T20:47:52;43.92;;;18.70;;
47299;SDS011;33036;51.320;17.234;2022-09-09T20:51:53;38.53;;;14.48;;
47299;SDS011;33036;51.320;17.234;2022-09-09T20:55:59;13.15;;;6.22;;
47299;SDS011;33036;51.320;17.234;2022-09-09T21:00:03;11.77;;;4.25;;
47299;SDS011;33036;51.320;17.234;2022-09-09T21:04:07;10.57;;;5.10;;
47299;SDS011;33036;51.320;17.234;2022-09-09T21:08:09;9.75;;;5.60;;
47299;SDS011;33036;51.320;17.234;2022-09-09T21:12:10;15.63;;;7.15;;
47299;SDS011;33036;51.320;17.234;2022-09-09T21:16:14;7.97;;;4.57;;
47299;SDS011;33036;51.320;17.234;2022-09-09T21:20:18;7.45;;;3.83;;
47299;SDS011;33036;51.320;17.234;2022-09-09T21:24:19;7.28;;;3.90;;
47299;SDS011;33036;51.320;17.234;2022-09-09T21:28:20;14.82;;;6.35;;
47299;SDS011;33036;51.320;17.234;2022-09-09T21:32:21;8.07;;;4.10;;
47299;SDS011;33036;51.320;17.234;2022-09-09T21:36:23;8.10;;;3.97;;
47299;SDS011;33036;51.320;17.234;2022-09-09T21:40:24;15.30;;;5.85;;
47299;SDS011;33036;51.320;17.234;2022-09-09T21:44:26;64.18;;;19.02;;
47299;SDS011;33036;51.320;17.234;2022-09-09T21:48:26;49.13;;;16.80;;
47299;SDS011;33036;51.320;17.234;2022-09-09T21:52:27;29.25;;;12.00;;
47299;SDS011;33036;51.320;17.234;2022-09-09T21:56:28;21.02;;;7.68;;
47299;SDS011;33036;51.320;17.234;2022-09-09T22:00:29;20.20;;;6.38;;
47299;SDS011;33036;51.320;17.234;2022-09-09T22:04:32;11.00;;;5.05;;
47299;SDS011;33036;51.320;17.234;2022-09-09T22:08:35;8.20;;;3.85;;
47299;SDS011;33036;51.320;17.234;2022-09-09T22:12:36;5.57;;;2.45;;
47299;SDS011;33036;51.320;17.234;2022-09-09T22:16:38;5.80;;;1.98;;
47299;SDS011;33036;51.320;17.234;2022-09-09T22:20:40;6.68;;;2.15;;
47299;SDS011;33036;51.320;17.234;2022-09-09T22:24:45;5.35;;;2.10;;
47299;SDS011;33036;51.320;17.234;2022-09-09T22:28:45;8.95;;;1.77;;
47299;SDS011;33036;51.320;17.234;2022-09-09T22:32:47;3.72;;;1.58;;
47299;SDS011;33036;51.320;17.234;2022-09-09T22:36:47;12.32;;;1.80;;
47299;SDS011;33036;51.320;17.234;2022-09-09T22:40:50;4.88;;;1.50;;
47299;SDS011;33036;51.320;17.234;2022-09-09T22:44:52;4.53;;;1.20;;
47299;SDS011;33036;51.320;17.234;2022-09-09T22:48:54;1.48;;;1.00;;
47299;SDS011;33036;51.320;17.234;2022-09-09T22:52:56;3.15;;;1.00;;
47299;SDS011;33036;51.320;17.234;2022-09-09T22:56:57;2.17;;;1.00;;
47299;SDS011;33036;51.320;17.234;2022-09-09T23:00:58;1.77;;;0.75;;
47299;SDS011;33036;51.320;17.234;2022-09-09T23:04:59;1.77;;;1.15;;
47299;SDS011;33036;51.320;17.234;2022-09-09T23:09:02;2.97;;;1.10;;
47299;SDS011;33036;51.320;17.234;2022-09-09T23:13:03;2.38;;;1.00;;
47299;SDS011;33036;51.320;17.234;2022-09-09T23:17:04;4.13;;;1.20;;
47299;SDS011;33036;51.320;17.234;2022-09-09T23:21:06;3.47;;;2.03;;
47299;SDS011;33036;51.320;17.234;2022-09-09T23:25:07;4.53;;;1.42;;
47299;SDS011;33036;51.320;17.234;2022-09-09T23:29:08;2.90;;;1.00;;
47299;SDS011;33036;51.320;17.234;2022-09-09T23:33:13;2.97;;;1.13;;
47299;SDS011;33036;51.320;17.234;2022-09-09T23:37:15;4.47;;;1.20;;
47299;SDS011;33036;51.320;17.234;2022-09-09T23:41:17;2.38;;;1.05;;
47299;SDS011;33036;51.320;17.234;2022-09-09T23:45:21;3.22;;;1.08;;
47299;SDS011;33036;51.320;17.234;2022-09-09T23:49:23;3.65;;;1.30;;
47299;SDS011;33036;51.320;17.234;2022-09-09T23:53:26;4.00;;;1.30;;
47299;SDS011;33036;51.320;17.234;2022-09-09T23:57:26;4.20;;;1.80;;
